Magdalena, New Mexico
Current Conditions -  °F | °C
As of 3:35 PM on Monday 24 Nov 2014 (Local Time) from KONM Reporting Station
Broken Clouds Broken Clouds  
Wind Chill: 42°   Ceiling: 10000
Heat Index: 48°   Visibility: 10mi
Dew Point:   Wind: 14mph
Humidity: 18%   Direction: 360°N
Pressure: 30.1"   Gusts: 24mph
Location:  34.12°N, 107.24°W
Report Text: KONM 242235Z AUTO 36012G21KT 10SM BKN100 09/M14 A3010 RMK AO2 T00881144
Loading
Personal Weather Stations






























Interactive Weather Map New forecast layout! Learn more

10-Day Weather Forecast

Advertisements
Track Severe Weather on mobile